Time;durP1;ratioP1;P1;durP2;ratioP2;P2;SDS_P1;SDS_P2;PMS_P1;PMS_P2;Temp;Humidity;BMP_temperature;BMP_pressure;BME280_temperature;BME280_humidity;BME280_pressure;Samples;Min_cycle;Max_cycle;Signal;HPM_P1;HPM_P2
2022/08/28 00:01:49;;;;;;;1999.90;999.90;;;11.80;99.90;;;;;;5051991;28;20042;-75
2022/08/28 00:04:14;;;;;;;1999.90;999.90;;;11.80;99.90;;;;;;5060690;28;20115;-75
2022/08/28 00:06:40;;;;;;;1999.90;999.90;;;11.80;99.90;;;;;;5064509;28;20040;-75
2022/08/28 00:09:06;;;;;;;1999.90;999.90;;;11.70;99.90;;;;;;5058315;28;20036;-75
2022/08/28 00:11:36;;;;;;;1999.90;999.90;;;11.70;99.90;;;;;;5038932;28;20059;-75
2022/08/28 00:14:06;;;;;;;1999.90;999.90;;;11.70;99.90;;;;;;5087535;28;20477;-75
2022/08/28 00:16:32;;;;;;;1999.90;999.90;;;11.60;99.90;;;;;;5045731;28;20062;-75
2022/08/28 00:19:00;;;;;;;1999.90;999.90;;;11.60;99.90;;;;;;5056399;28;20037;-76
2022/08/28 00:21:26;;;;;;;1999.90;999.90;;;11.50;99.90;;;;;;5060684;28;20511;-75
2022/08/28 00:23:52;;;;;;;1999.90;999.90;;;11.40;99.90;;;;;;5063575;28;20546;-75
2022/08/28 00:29:04;;;;;;;1999.90;999.90;;;11.30;99.90;;;;;;5056908;28;20043;-75
2022/08/28 00:31:29;;;;;;;1999.90;999.90;;;11.30;99.90;;;;;;5057354;28;20056;-75
2022/08/28 00:33:55;;;;;;;1999.90;999.90;;;11.20;99.90;;;;;;5042450;28;20427;-75
2022/08/28 00:36:20;;;;;;;1999.90;999.90;;;11.20;99.90;;;;;;5057757;28;20105;-75
2022/08/28 00:38:46;;;;;;;1999.90;999.90;;;11.20;99.90;;;;;;5058852;28;20044;-75
2022/08/28 00:41:12;;;;;;;1999.90;999.90;;;11.10;99.90;;;;;;5057692;28;20040;-75
2022/08/28 00:43:46;;;;;;;1999.90;999.90;;;11.10;99.90;;;;;;5066203;28;20362;-75
2022/08/28 00:46:19;;;;;;;1999.90;999.90;;;11.10;99.90;;;;;;5047407;28;20048;-75
2022/08/28 00:48:45;;;;;;;1999.90;999.90;;;11.10;99.90;;;;;;5040083;28;20044;-74
2022/08/28 00:53:58;;;;;;;1999.90;999.90;;;11.00;99.90;;;;;;5064863;28;20039;-75
2022/08/28 00:56:24;;;;;;;1999.90;999.90;;;10.90;99.90;;;;;;5047448;28;20033;-75
2022/08/28 00:58:53;;;;;;;1999.90;999.90;;;10.90;99.90;;;;;;5041107;28;20543;-75
2022/08/28 01:01:19;;;;;;;1999.90;999.90;;;10.90;99.90;;;;;;5041837;28;20123;-75
2022/08/28 01:03:44;;;;;;;1999.90;999.90;;;10.90;99.90;;;;;;5059650;28;20586;-74
2022/08/28 01:06:13;;;;;;;1999.90;999.90;;;10.80;99.90;;;;;;5057210;28;20228;-75
2022/08/28 01:08:41;;;;;;;1999.90;999.90;;;10.80;99.90;;;;;;5059205;28;20059;-75
2022/08/28 01:11:08;;;;;;;1999.90;999.90;;;10.80;99.90;;;;;;5048464;28;20037;-74
2022/08/28 01:13:38;;;;;;;1999.90;999.90;;;10.70;99.90;;;;;;5060174;28;20040;-74
2022/08/28 01:16:06;;;;;;;1999.90;999.90;;;10.70;99.90;;;;;;5059205;28;20037;-74
2022/08/28 01:18:33;;;;;;;1999.90;999.90;;;10.60;99.90;;;;;;5042339;28;20445;-74
2022/08/28 01:21:08;;;;;;;1999.90;999.90;;;10.60;99.90;;;;;;5061139;28;20048;-75
2022/08/28 01:23:58;;;;;;;1999.90;999.90;;;10.60;99.90;;;;;;5048108;28;20390;-75
2022/08/28 01:26:26;;;;;;;1999.90;999.90;;;10.50;99.90;;;;;;5058608;28;20506;-75
2022/08/28 01:28:52;;;;;;;1999.90;999.90;;;10.50;99.90;;;;;;5055579;28;20125;-74
2022/08/28 01:31:19;;;;;;;1999.90;999.90;;;10.50;99.90;;;;;;5058938;28;20139;-74
2022/08/28 01:33:46;;;;;;;1999.90;999.90;;;10.40;99.90;;;;;;5055498;28;20059;-75
2022/08/28 01:36:13;;;;;;;1999.90;999.90;;;10.40;99.90;;;;;;5046178;28;20043;-75
2022/08/28 01:38:41;;;;;;;1999.90;999.90;;;10.40;99.90;;;;;;5058937;28;20438;-74
2022/08/28 01:41:07;;;;;;;1999.90;999.90;;;10.30;99.90;;;;;;5064742;28;20040;-75
2022/08/28 01:43:33;;;;;;;1999.90;999.90;;;10.30;99.90;;;;;;5057127;28;20067;-74
2022/08/28 01:46:03;;;;;;;1999.90;999.90;;;10.30;99.90;;;;;;5055105;28;20078;-74
2022/08/28 01:48:30;;;;;;;1999.90;999.90;;;10.30;99.90;;;;;;5061006;28;20431;-74
2022/08/28 01:50:56;;;;;;;1999.90;999.90;;;10.30;99.90;;;;;;5057430;28;20064;-75
2022/08/28 01:53:25;;;;;;;1999.90;999.90;;;10.20;99.90;;;;;;5056814;28;20040;-75
2022/08/28 01:55:53;;;;;;;1999.90;999.90;;;10.20;99.90;;;;;;5059457;28;20044;-74
2022/08/28 01:58:20;;;;;;;1999.90;999.90;;;10.20;99.90;;;;;;5056754;28;20044;-74
2022/08/28 02:00:46;;;;;;;1999.90;999.90;;;10.10;99.90;;;;;;5060514;28;20037;-75
2022/08/28 02:03:12;;;;;;;1999.90;999.90;;;10.10;99.90;;;;;;5059074;28;20460;-74
2022/08/28 02:05:38;;;;;;;1999.90;999.90;;;10.00;99.90;;;;;;5057617;28;20089;-75
2022/08/28 02:08:05;;;;;;;1999.90;999.90;;;10.00;99.90;;;;;;5061784;28;20072;-74
2022/08/28 02:10:34;;;;;;;1999.90;999.90;;;10.00;99.90;;;;;;5048886;28;20467;-74
2022/08/28 02:13:01;;;;;;;1999.90;999.90;;;9.90;99.90;;;;;;5056708;28;20101;-75
2022/08/28 02:15:29;;;;;;;1999.90;999.90;;;9.90;99.90;;;;;;5057366;28;20052;-75
2022/08/28 02:17:55;;;;;;;1999.90;999.90;;;9.90;99.90;;;;;;5057672;28;20444;-75
2022/08/28 02:20:21;;;;;;;1999.90;999.90;;;9.90;99.90;;;;;;5056002;28;20082;-74
2022/08/28 02:22:47;;;;;;;1999.90;999.90;;;9.80;99.90;;;;;;5057408;28;20038;-74
2022/08/28 02:25:13;;;;;;;1999.90;999.90;;;9.80;99.90;;;;;;5047597;28;20457;-74
2022/08/28 02:27:39;;;;;;;1999.90;999.90;;;9.80;99.90;;;;;;5058459;28;20577;-74
2022/08/28 02:30:07;;;;;;;1999.90;999.90;;;9.80;99.90;;;;;;5063424;28;20075;-74
2022/08/28 02:32:33;;;;;;;1999.90;999.90;;;9.80;99.90;;;;;;5066170;28;20143;-74
2022/08/28 02:34:58;;;;;;;1999.90;999.90;;;9.80;99.90;;;;;;5053346;28;20135;-74
2022/08/28 02:37:24;;;;;;;1999.90;999.90;;;9.70;99.90;;;;;;5069364;28;20038;-75
2022/08/28 02:39:53;;;;;;;1999.90;999.90;;;9.70;99.90;;;;;;5068985;28;20039;-74
2022/08/28 02:42:19;;;;;;;1999.90;999.90;;;9.70;99.90;;;;;;5060013;28;20408;-74
2022/08/28 02:44:44;;;;;;;1999.90;999.90;;;9.70;99.90;;;;;;5038599;28;20052;-74
2022/08/28 02:47:10;;;;;;;1999.90;999.90;;;9.60;99.90;;;;;;5042835;28;20522;-75
2022/08/28 02:49:36;;;;;;;1999.90;999.90;;;9.60;99.90;;;;;;5070252;28;20044;-74
2022/08/28 02:52:03;;;;;;;1999.90;999.90;;;9.60;99.90;;;;;;5070243;28;20071;-74
2022/08/28 02:54:29;;;;;;;1999.90;999.90;;;9.60;99.90;;;;;;5051012;28;20051;-74
2022/08/28 02:56:55;;;;;;;1999.90;999.90;;;9.50;99.90;;;;;;5052632;28;20056;-74
2022/08/28 02:59:21;;;;;;;1999.90;999.90;;;9.50;99.90;;;;;;5053884;28;20127;-74
2022/08/28 03:01:47;;;;;;;1999.90;999.90;;;9.50;99.90;;;;;;5070386;28;20566;-74
2022/08/28 03:04:13;;;;;;;1999.90;999.90;;;9.50;99.90;;;;;;5047298;28;20035;-74
2022/08/28 03:06:38;;;;;;;1999.90;999.90;;;9.40;99.90;;;;;;5070250;28;20445;-74
2022/08/28 03:09:04;;;;;;;1999.90;999.90;;;9.40;99.90;;;;;;5069774;28;20040;-75
2022/08/28 03:11:30;;;;;;;1999.90;999.90;;;9.40;99.90;;;;;;5051050;28;20044;-74
2022/08/28 03:13:56;;;;;;;1999.90;999.90;;;9.40;99.90;;;;;;5056589;28;20511;-74
2022/08/28 03:16:23;;;;;;;1999.90;999.90;;;9.40;99.90;;;;;;5055386;28;20036;-74
2022/08/28 03:18:49;;;;;;;1999.90;999.90;;;9.30;99.90;;;;;;5078897;28;20036;-74
2022/08/28 03:21:15;;;;;;;1999.90;999.90;;;9.30;99.90;;;;;;5045099;28;20484;-74
2022/08/28 03:23:41;;;;;;;1999.90;999.90;;;9.30;99.90;;;;;;5049891;28;20120;-74
2022/08/28 03:26:13;;;;;;;1999.90;999.90;;;9.30;99.90;;;;;;5056446;28;20090;-74
2022/08/28 03:28:43;;;;;;;1999.90;999.90;;;9.20;99.90;;;;;;5059642;28;20051;-75
2022/08/28 03:31:12;;;;;;;1999.90;999.90;;;9.20;99.90;;;;;;5059715;28;20496;-74
2022/08/28 03:33:40;;;;;;;1999.90;999.90;;;9.20;99.90;;;;;;5060742;28;20540;-74
2022/08/28 03:36:06;;;;;;;1999.90;999.90;;;9.20;99.90;;;;;;5058620;28;20052;-74
2022/08/28 03:38:32;;;;;;;1999.90;999.90;;;9.20;99.90;;;;;;5049604;28;20385;-73
2022/08/28 03:40:59;;;;;;;1999.90;999.90;;;9.20;99.90;;;;;;5044184;28;20048;-74
2022/08/28 03:43:26;;;;;;;1999.90;999.90;;;9.20;99.90;;;;;;5037949;28;20508;-74
2022/08/28 03:45:59;;;;;;;1999.90;999.90;;;9.20;99.90;;;;;;5058264;28;20071;-74
2022/08/28 03:48:26;;;;;;;1999.90;999.90;;;9.20;99.90;;;;;;5045560;28;20044;-74
2022/08/28 03:50:52;;;;;;;1999.90;999.90;;;9.20;99.90;;;;;;5064184;28;20048;-74
2022/08/28 03:53:20;;;;;;;1999.90;999.90;;;9.20;99.90;;;;;;5052668;28;20070;-74
2022/08/28 03:55:46;;;;;;;1999.90;999.90;;;9.30;99.90;;;;;;5052277;28;20040;-74
2022/08/28 03:58:12;;;;;;;1999.90;999.90;;;9.50;99.90;;;;;;5068026;28;20063;-74
2022/08/28 04:00:39;;;;;;;1999.90;999.90;;;9.70;99.90;;;;;;5064926;28;20074;-74
2022/08/28 04:03:05;;;;;;;1999.90;999.90;;;9.80;99.90;;;;;;5058196;28;20051;-74
2022/08/28 04:05:31;;;;;;;1999.90;999.90;;;9.80;99.90;;;;;;5059047;28;20503;-74
2022/08/28 04:07:57;;;;;;;1999.90;999.90;;;9.80;99.90;;;;;;5059248;28;20040;-74
2022/08/28 04:10:23;;;;;;;1999.90;999.90;;;9.70;99.90;;;;;;5043540;28;20044;-74
2022/08/28 04:12:48;;;;;;;1999.90;999.90;;;9.70;99.90;;;;;;5060674;28;20586;-74
2022/08/28 04:15:14;;;;;;;1999.90;999.90;;;9.60;99.90;;;;;;5041927;28;20040;-74
2022/08/28 04:17:40;;;;;;;1999.90;999.90;;;9.60;99.90;;;;;;5061065;28;20127;-74
2022/08/28 04:20:07;;;;;;;1999.90;999.90;;;9.60;99.90;;;;;;5058195;28;20446;-74
2022/08/28 04:22:33;;;;;;;1999.90;999.90;;;9.60;99.90;;;;;;5049506;28;20063;-74
2022/08/28 04:24:59;;;;;;;1999.90;999.90;;;9.50;99.90;;;;;;5055050;28;20032;-74
2022/08/28 04:27:25;;;;;;;1999.90;999.90;;;9.50;99.90;;;;;;5060291;28;20454;-74
2022/08/28 04:32:51;;;;;;;1999.90;999.90;;;9.30;99.90;;;;;;4957653;28;20519;-74
2022/08/28 04:35:17;;;;;;;1999.90;999.90;;;9.30;99.90;;;;;;4932883;29;20063;-73
2022/08/28 04:37:42;;;;;;;1999.90;999.90;;;9.30;99.90;;;;;;4946349;28;20054;-73
2022/08/28 04:40:10;;;;;;;1999.90;999.90;;;9.20;99.90;;;;;;4956111;28;20461;-73
2022/08/28 04:42:37;;;;;;;1999.90;999.90;;;9.20;99.90;;;;;;4951886;28;20042;-73
2022/08/28 04:45:05;;;;;;;1999.90;999.90;;;9.10;99.90;;;;;;4952938;28;20113;-74
2022/08/28 04:47:34;;;;;;;1999.90;999.90;;;9.10;99.90;;;;;;4947980;28;20047;-74
2022/08/28 04:50:00;;;;;;;1999.90;999.90;;;9.10;99.90;;;;;;4942617;28;20173;-74
2022/08/28 04:52:26;;;;;;;1999.90;999.90;;;9.20;99.90;;;;;;4928620;28;20940;-74
2022/08/28 04:54:51;;;;;;;1999.90;999.90;;;9.10;99.90;;;;;;4947270;28;20562;-74
2022/08/28 04:57:25;;;;;;;1999.90;999.90;;;9.20;99.90;;;;;;4935150;28;20130;-74
2022/08/28 04:59:51;;;;;;;1999.90;999.90;;;9.20;99.90;;;;;;4936257;28;20038;-73
2022/08/28 05:02:17;;;;;;;1999.90;999.90;;;9.20;99.90;;;;;;4944084;28;20061;-74
2022/08/28 05:04:42;;;;;;;1999.90;999.90;;;9.30;99.90;;;;;;4939650;28;20099;-73
2022/08/28 05:07:08;;;;;;;1999.90;999.90;;;9.30;99.90;;;;;;4947791;28;20051;-74
2022/08/28 05:09:36;;;;;;;1999.90;999.90;;;9.40;99.90;;;;;;4975118;28;20062;-74
2022/08/28 05:12:03;;;;;;;1999.90;999.90;;;9.50;99.90;;;;;;5050753;28;20040;-74
2022/08/28 05:14:31;;;;;;;1999.90;999.90;;;9.50;99.90;;;;;;5065074;28;20052;-74
2022/08/28 05:16:57;;;;;;;1999.90;999.90;;;9.60;99.90;;;;;;5067757;28;20553;-73
2022/08/28 05:19:25;;;;;;;1999.90;999.90;;;9.60;99.90;;;;;;5047240;28;20068;-74
2022/08/28 05:22:08;;;;;;;1999.90;999.90;;;9.70;99.90;;;;;;5020718;28;20152;-74
2022/08/28 05:24:35;;;;;;;1999.90;999.90;;;9.90;99.90;;;;;;4984628;28;20057;-74
2022/08/28 05:27:16;;;;;;;1999.90;999.90;;;10.20;99.90;;;;;;4959196;28;20082;-74
2022/08/28 05:29:43;;;;;;;1999.90;999.90;;;10.50;99.90;;;;;;4949373;28;20137;-74
2022/08/28 05:32:09;;;;;;;1999.90;999.90;;;10.70;99.90;;;;;;4947518;28;20516;-74
2022/08/28 05:34:35;;;;;;;1999.90;999.90;;;10.90;99.90;;;;;;4942314;28;20178;-74
2022/08/28 05:37:01;;;;;;;1999.90;999.90;;;11.10;99.90;;;;;;4932820;28;20082;-74
2022/08/28 05:39:26;;;;;;;1999.90;999.90;;;11.50;99.90;;;;;;4945305;28;20047;-74
2022/08/28 05:41:52;;;;;;;1999.90;999.90;;;11.70;99.90;;;;;;4951522;28;20500;-74
2022/08/28 05:44:19;;;;;;;1999.90;999.90;;;12.00;99.90;;;;;;4951878;28;20423;-74
2022/08/28 05:46:47;;;;;;;1999.90;999.90;;;12.20;99.90;;;;;;4957570;28;20471;-74
2022/08/28 05:49:13;;;;;;;1999.90;999.90;;;12.50;99.90;;;;;;4951134;28;20419;-74
2022/08/28 05:51:40;;;;;;;1999.90;999.90;;;12.80;99.90;;;;;;4928434;28;20142;-74
2022/08/28 05:54:06;;;;;;;1999.90;999.90;;;13.00;99.90;;;;;;4949348;28;20043;-74
2022/08/28 05:56:35;;;;;;;1999.90;999.90;;;13.20;99.90;;;;;;4931196;28;20550;-74
2022/08/28 05:59:04;;;;;;;1999.90;999.90;;;13.40;99.90;;;;;;4951085;28;20103;-74
2022/08/28 06:01:33;;;;;;;1999.90;999.90;;;13.60;99.90;;;;;;4985132;28;20038;-75
2022/08/28 06:04:07;;;;;;;1999.90;999.90;;;13.70;99.90;;;;;;4997359;28;20531;-74
2022/08/28 06:06:34;;;;;;;1999.90;999.90;;;13.80;99.90;;;;;;5055318;28;20054;-75
2022/08/28 06:09:06;;;;;;;1999.90;999.90;;;13.90;99.90;;;;;;5045071;28;20047;-75
2022/08/28 06:11:34;;;;;;;1999.90;999.90;;;13.90;99.90;;;;;;5054753;28;20072;-74
2022/08/28 06:14:08;;;;;;;1999.90;999.90;;;13.90;99.90;;;;;;5062043;28;20489;-74
2022/08/28 06:16:35;;;;;;;1999.90;999.90;;;14.00;99.90;;;;;;5050487;28;20036;-75
2022/08/28 06:19:01;;;;;;;1999.90;999.90;;;14.10;99.90;;;;;;5060073;28;20055;-75
2022/08/28 06:21:28;;;;;;;1999.90;999.90;;;14.30;99.90;;;;;;5066530;28;20495;-75
2022/08/28 06:23:54;;;;;;;1999.90;999.90;;;14.50;99.90;;;;;;5048428;28;20040;-74
2022/08/28 06:26:20;;;;;;;1999.90;999.90;;;14.60;99.90;;;;;;5050733;28;20043;-75
2022/08/28 06:28:45;;;;;;;1999.90;999.90;;;14.80;99.90;;;;;;5070574;28;20043;-74
2022/08/28 06:31:11;;;;;;;1999.90;999.90;;;14.90;99.90;;;;;;5070343;28;20519;-75
2022/08/28 06:33:37;;;;;;;1999.90;999.90;;;15.00;99.90;;;;;;5062603;28;20568;-74
2022/08/28 06:36:04;;;;;;;1999.90;999.90;;;15.10;99.90;;;;;;5061479;28;20582;-75
2022/08/28 06:38:29;;;;;;;1999.90;999.90;;;15.30;99.90;;;;;;5060975;28;20460;-75
2022/08/28 06:40:56;;;;;;;1999.90;999.90;;;15.40;99.90;;;;;;5057774;28;20047;-75
2022/08/28 06:43:25;;;;;;;1999.90;999.90;;;15.50;99.90;;;;;;5055031;28;20105;-75
2022/08/28 06:45:53;;;;;;;1999.90;999.90;;;15.60;99.90;;;;;;5041310;28;20046;-75
2022/08/28 06:48:20;;;;;;;1999.90;999.90;;;15.70;99.90;;;;;;5056353;28;20063;-74
2022/08/28 06:50:54;;;;;;;1999.90;999.90;;;15.80;99.90;;;;;;5046930;28;20571;-75
2022/08/28 06:53:25;;;;;;;1999.90;999.90;;;16.00;99.90;;;;;;5054531;28;20044;-75
2022/08/28 06:56:07;;;;;;;1999.90;999.90;;;16.10;99.90;;;;;;5058016;28;20067;-75
2022/08/28 06:58:35;;;;;;;1999.90;999.90;;;16.20;99.90;;;;;;5059176;28;20495;-74
2022/08/28 07:01:29;;;;;;;1999.90;999.90;;;16.30;99.90;;;;;;5067359;28;20044;-75
2022/08/28 07:03:58;;;;;;;1999.90;999.90;;;16.50;99.90;;;;;;5006313;28;20476;-75
2022/08/28 07:06:25;;;;;;;1999.90;999.90;;;16.60;99.90;;;;;;4989970;28;20053;-75
2022/08/28 07:08:51;;;;;;;1999.90;999.90;;;16.70;99.90;;;;;;5009357;28;20102;-75
2022/08/28 07:11:23;;;;;;;1999.90;999.90;;;16.90;99.90;;;;;;4989539;28;20041;-75
2022/08/28 07:13:49;;;;;;;1999.90;999.90;;;17.00;99.90;;;;;;5017464;28;20049;-75
2022/08/28 07:16:17;;;;;;;1999.90;999.90;;;17.10;99.90;;;;;;4984491;28;20057;-74
2022/08/28 07:18:44;;;;;;;1999.90;999.90;;;17.20;99.90;;;;;;4987201;28;20105;-75
2022/08/28 07:21:10;;;;;;;1999.90;999.90;;;17.30;99.90;;;;;;4998918;28;20116;-75
2022/08/28 07:23:37;;;;;;;1999.90;999.90;;;17.40;99.90;;;;;;5011613;28;20042;-76
2022/08/28 07:26:07;;;;;;;1999.90;999.90;;;17.50;99.90;;;;;;4998669;28;20041;-75
2022/08/28 07:28:33;;;;;;;1999.90;999.90;;;17.50;99.90;;;;;;4983311;28;20082;-75
2022/08/28 07:31:14;;;;;;;1999.90;999.90;;;17.60;99.90;;;;;;4985272;28;20136;-75
2022/08/28 07:33:40;;;;;;;1999.90;999.90;;;17.60;99.90;;;;;;4999502;28;20458;-75
2022/08/28 07:36:09;;;;;;;1999.90;999.90;;;17.70;99.90;;;;;;4982534;28;20037;-75
2022/08/28 07:38:35;;;;;;;1999.90;999.90;;;17.70;99.90;;;;;;4982076;28;20046;-75
2022/08/28 07:41:01;;;;;;;1999.90;999.90;;;17.80;99.90;;;;;;5031888;28;20056;-75
2022/08/28 07:46:11;;;;;;;1999.90;999.90;;;17.90;99.90;;;;;;5062409;28;20044;-75
2022/08/28 07:48:39;;;;;;;1999.90;999.90;;;18.00;99.90;;;;;;5061241;28;20052;-75
2022/08/28 07:51:06;;;;;;;1999.90;999.90;;;18.10;99.90;;;;;;5047478;28;20260;-75
2022/08/28 07:53:32;;;;;;;1999.90;999.90;;;18.20;99.90;;;;;;5057572;28;20048;-75
2022/08/28 07:55:58;;;;;;;1999.90;999.90;;;18.20;99.90;;;;;;5045209;28;20398;-75
2022/08/28 07:58:24;;;;;;;1999.90;999.90;;;18.30;99.90;;;;;;5043651;28;20653;-75
2022/08/28 08:00:51;;;;;;;1999.90;999.90;;;18.30;99.90;;;;;;5061140;28;20165;-75
2022/08/28 08:03:17;;;;;;;1999.90;999.90;;;18.50;99.90;;;;;;5059805;28;20042;-74
2022/08/28 08:05:54;;;;;;;1999.90;999.90;;;18.60;99.90;;;;;;5047483;28;20055;-74
2022/08/28 08:08:20;;;;;;;1999.90;999.90;;;18.70;99.90;;;;;;5057715;28;20040;-74
2022/08/28 08:10:55;;;;;;;1999.90;999.90;;;18.80;99.90;;;;;;5047887;28;20059;-75
2022/08/28 08:13:21;;;;;;;1999.90;999.90;;;19.10;99.90;;;;;;5074007;28;20044;-76
2022/08/28 08:15:46;;;;;;;1999.90;999.90;;;19.20;99.90;;;;;;5043328;28;20110;-76
2022/08/28 08:18:12;;;;;;;1999.90;999.90;;;19.30;99.90;;;;;;5043388;28;20036;-75
2022/08/28 08:20:38;;;;;;;1999.90;999.90;;;19.40;99.90;;;;;;5050147;28;20028;-74
2022/08/28 08:23:03;;;;;;;1999.90;999.90;;;19.40;99.90;;;;;;5049354;28;20040;-74
2022/08/28 08:25:29;;;;;;;1999.90;999.90;;;19.30;99.60;;;;;;5062337;28;20075;-75
2022/08/28 08:27:54;;;;;;;1999.90;999.90;;;19.30;99.90;;;;;;5058254;28;20476;-75
2022/08/28 08:30:20;;;;;;;1999.90;999.90;;;19.40;99.90;;;;;;5055797;28;20109;-75
2022/08/28 08:32:46;;;;;;;1999.90;999.90;;;19.60;99.90;;;;;;5065358;28;20063;-75
2022/08/28 08:35:11;;;;;;;1999.90;999.90;;;19.80;99.90;;;;;;5057279;28;20052;-74
2022/08/28 08:37:39;;;;;;;1999.90;999.90;;;19.90;99.90;;;;;;5048136;28;20044;-75
2022/08/28 08:40:07;;;;;;;1999.90;999.90;;;20.00;99.90;;;;;;5063522;28;20038;-75
2022/08/28 08:42:33;;;;;;;1999.90;999.90;;;19.90;99.40;;;;;;5056971;28;20063;-75
2022/08/28 08:45:04;;;;;;;1999.90;999.90;;;19.80;99.30;;;;;;5062815;28;20040;-75
2022/08/28 08:47:51;;;;;;;1999.90;999.90;;;19.70;99.50;;;;;;5055026;28;20179;-74
2022/08/28 08:50:24;;;;;;;1999.90;999.90;;;19.80;99.80;;;;;;5046235;28;20052;-75
2022/08/28 08:53:25;;;;;;;1999.90;999.90;;;20.10;98.80;;;;;;5037373;28;20453;-75
2022/08/28 08:55:53;;;;;;;1999.90;999.90;;;20.50;97.40;;;;;;5065779;28;20101;-75
2022/08/28 08:58:27;;;;;;;1999.90;999.90;;;20.70;96.00;;;;;;5054633;28;20563;-75
2022/08/28 09:01:20;;;;;;;1999.90;999.90;;;20.40;95.60;;;;;;5076999;28;20048;-74
2022/08/28 09:04:11;;;;;;;1999.90;999.90;;;20.10;95.80;;;;;;5039598;28;20051;-75
2022/08/28 09:06:46;;;;;;;1999.90;999.90;;;19.90;96.30;;;;;;5058583;28;20036;-76
2022/08/28 09:09:29;;;;;;;1999.90;999.90;;;20.60;95.90;;;;;;5058255;28;20044;-74
2022/08/28 09:12:02;;;;;;;1999.90;999.90;;;21.60;94.60;;;;;;5054847;28;20040;-75
2022/08/28 09:14:43;;;;;;;1999.90;999.90;;;21.50;93.80;;;;;;5058086;28;20044;-75
2022/08/28 09:17:10;;;;;;;1999.90;999.90;;;21.10;94.20;;;;;;5047728;28;20459;-75
2022/08/28 09:19:36;;;;;;;1999.90;999.90;;;20.90;94.60;;;;;;5040983;28;20410;-75
2022/08/28 09:22:02;;;;;;;1999.90;999.90;;;21.10;94.90;;;;;;5055893;28;20457;-75
2022/08/28 09:24:34;;;;;;;1999.90;999.90;;;21.10;94.70;;;;;;5066960;28;20079;-74
2022/08/28 09:27:02;;;;;;;1999.90;999.90;;;20.90;94.10;;;;;;5051680;28;20086;-75
2022/08/28 09:29:35;;;;;;;1999.90;999.90;;;20.70;94.20;;;;;;5068375;28;20040;-75
2022/08/28 09:32:19;;;;;;;;;;;20.60;94.20;;;;;;5068280;28;20056;-75
2022/08/28 09:35:06;;;;;;;1999.90;999.90;;;20.50;94.80;;;;;;5034416;28;19935;-75
2022/08/28 09:37:33;;;;;;;1999.90;999.90;;;20.40;94.20;;;;;;5065065;28;20060;-74
2022/08/28 09:40:12;;;;;;;1999.90;999.90;;;20.10;94.20;;;;;;5044726;28;20441;-75
2022/08/28 09:45:25;;;;;;;1999.90;999.90;;;20.80;94.70;;;;;;5071592;28;20082;-75
2022/08/28 09:47:54;;;;;;;1999.90;999.90;;;21.70;93.30;;;;;;5048999;28;20047;-75
2022/08/28 09:50:30;;;;;;;1999.90;999.90;;;22.20;92.40;;;;;;5055013;28;20054;-75
2022/08/28 09:53:12;;;;;;;1999.90;999.90;;;22.10;91.40;;;;;;5053954;28;20048;-75
2022/08/28 09:55:47;;;;;;;1999.90;999.90;;;22.10;91.90;;;;;;5072080;28;20407;-75
2022/08/28 09:58:13;;;;;;;1999.90;999.90;;;22.00;90.70;;;;;;5069510;28;20297;-75
2022/08/28 10:00:46;;;;;;;1999.90;999.90;;;21.50;90.30;;;;;;5067259;28;20039;-75
2022/08/28 10:03:25;;;;;;;1999.90;999.90;;;21.00;91.00;;;;;;5054748;28;20070;-75
2022/08/28 10:06:02;;;;;;;1999.90;999.90;;;20.70;91.70;;;;;;5062841;28;20086;-75
2022/08/28 10:09:03;;;;;;;1999.90;999.90;;;20.60;92.00;;;;;;5058762;28;20281;-75
2022/08/28 10:12:05;;;;;;;1999.90;999.90;;;20.70;92.90;;;;;;5032829;28;20062;-75
2022/08/28 10:14:37;;;;;;;1999.90;999.90;;;21.20;92.10;;;;;;5048195;28;20412;-75
2022/08/28 10:17:02;;;;;;;1999.90;999.90;;;21.20;92.00;;;;;;5071387;28;20036;-75
2022/08/28 10:19:57;;;;;;;1999.90;999.90;;;20.90;91.30;;;;;;5054375;28;20051;-75
2022/08/28 10:22:25;;;;;;;1999.90;999.90;;;20.50;91.70;;;;;;5042485;28;20051;-74
2022/08/28 10:25:13;;;;;;;1999.90;999.90;;;20.20;92.10;;;;;;5042484;28;20044;-75
2022/08/28 10:27:50;;;;;;;1999.90;999.90;;;20.00;92.50;;;;;;5041171;28;20039;-75
2022/08/28 10:30:20;;;;;;;1999.90;999.90;;;20.00;92.70;;;;;;5053738;28;20060;-75
2022/08/28 10:32:52;;;;;;;1999.90;999.90;;;20.30;93.50;;;;;;5064030;28;20186;-74
2022/08/28 10:35:22;;;;;;;1999.90;999.90;;;21.00;92.70;;;;;;5053935;28;20048;-75
2022/08/28 10:38:06;;;;;;;1999.90;999.90;;;21.30;91.50;;;;;;5049712;28;20039;-75
2022/08/28 10:40:40;;;;;;;1999.90;999.90;;;21.30;91.20;;;;;;5070569;28;20036;-75
2022/08/28 10:43:18;;;;;;;1999.90;999.90;;;21.40;91.80;;;;;;5054160;28;20035;-75
2022/08/28 10:45:44;;;;;;;1999.90;999.90;;;21.60;91.20;;;;;;5054265;28;20121;-74
2022/08/28 10:48:24;;;;;;;1999.90;999.90;;;21.60;90.60;;;;;;5069516;28;20038;-75
2022/08/28 10:50:54;;;;;;;1999.90;999.90;;;21.20;91.00;;;;;;5067176;28;20040;-75
2022/08/28 10:53:34;;;;;;;1999.90;999.90;;;21.00;91.20;;;;;;5054028;28;20048;-76
2022/08/28 10:56:07;;;;;;;1999.90;999.90;;;21.00;91.90;;;;;;5070653;28;20048;-75
2022/08/28 10:58:36;;;;;;;1999.90;999.90;;;21.50;92.00;;;;;;5070439;28;20113;-75
2022/08/28 11:01:08;;;;;;;1999.90;999.90;;;22.00;89.60;;;;;;5066456;28;20173;-75
2022/08/28 11:03:48;;;;;;;1999.90;999.90;;;22.20;87.50;;;;;;5070438;28;20043;-74
2022/08/28 11:06:40;;;;;;;1999.90;999.90;;;22.30;87.20;;;;;;5068713;28;20430;-75
2022/08/28 11:09:24;;;;;;;1999.90;999.90;;;22.40;87.10;;;;;;5055462;28;20056;-74
2022/08/28 11:11:56;;;;;;;1999.90;999.90;;;22.70;85.90;;;;;;5040346;28;20083;-75
2022/08/28 11:14:35;;;;;;;1999.90;999.90;;;22.80;82.10;;;;;;5070349;28;20094;-75
2022/08/28 11:17:08;;;;;;;1999.90;999.90;;;22.70;82.80;;;;;;5047328;28;20462;-74
2022/08/28 11:19:43;;;;;;;1999.90;999.90;;;22.80;83.10;;;;;;5053414;28;20044;-74
2022/08/28 11:22:17;;;;;;;1999.90;999.90;;;22.80;78.60;;;;;;5068365;28;20044;-75
2022/08/28 11:24:47;;;;;;;1999.90;999.90;;;22.60;79.90;;;;;;5042400;28;20401;-75
2022/08/28 11:27:16;;;;;;;1999.90;999.90;;;22.70;81.20;;;;;;5064513;28;20044;-75
2022/08/28 11:30:10;;;;;;;1999.90;999.90;;;22.70;79.00;;;;;;5070292;28;20098;-75
2022/08/28 11:32:51;;;;;;;1999.90;999.90;;;22.30;79.50;;;;;;5053021;28;20112;-75
2022/08/28 11:35:19;;;;;;;1999.90;999.90;;;22.20;81.70;;;;;;5066209;28;20044;-75
2022/08/28 11:37:51;;;;;;;1999.90;999.90;;;22.00;79.90;;;;;;5070270;28;20036;-74
2022/08/28 11:40:43;;;;;;;1999.90;999.90;;;21.70;81.50;;;;;;5072320;28;20040;-75
2022/08/28 11:43:14;;;;;;;1999.90;999.90;;;21.90;83.20;;;;;;5057170;28;20044;-75
2022/08/28 11:45:46;;;;;;;1999.90;999.90;;;22.00;82.60;;;;;;5074071;28;20043;-75
2022/08/28 11:48:34;;;;;;;1999.90;999.90;;;21.80;81.90;;;;;;5070071;28;20043;-75
2022/08/28 11:51:44;;;;;;;1999.90;999.90;;;21.70;83.80;;;;;;5074284;28;20499;-74
2022/08/28 11:54:33;;;;;;;1999.90;999.90;;;22.00;82.90;;;;;;5068020;28;20123;-75
2022/08/28 11:57:12;;;;;;;1999.90;999.90;;;22.00;81.70;;;;;;5021827;28;20064;-75
2022/08/28 11:59:51;;;;;;;1999.90;999.90;;;21.70;80.40;;;;;;5073529;28;20032;-75
2022/08/28 12:02:38;;;;;;;1999.90;999.90;;;21.80;82.10;;;;;;5073230;28;20345;-74
2022/08/28 12:05:15;;;;;;;1999.90;999.90;;;22.20;81.30;;;;;;5060472;28;20048;-75
2022/08/28 12:07:43;;;;;;;1999.90;999.90;;;22.00;80.60;;;;;;5055476;28;20047;-75
2022/08/28 12:10:21;;;;;;;1999.90;999.90;;;21.60;80.90;;;;;;5081267;28;20067;-75
2022/08/28 12:12:46;;;;;;;1999.90;999.90;;;21.40;82.90;;;;;;5054998;28;20093;-75
2022/08/28 12:15:27;;;;;;;1999.90;999.90;;;21.60;82.60;;;;;;5073522;28;20040;-75
2022/08/28 12:18:01;;;;;;;1999.90;999.90;;;22.00;82.10;;;;;;5071630;28;20032;-76
2022/08/28 12:20:45;;;;;;;1999.90;999.90;;;22.20;81.20;;;;;;5073540;28;20507;-74
2022/08/28 12:23:39;;;;;;;1999.90;999.90;;;22.50;82.20;;;;;;5056683;28;20125;-75
2022/08/28 12:26:28;;;;;;;1999.90;999.90;;;22.60;80.20;;;;;;5057023;28;20044;-75
2022/08/28 12:29:00;;;;;;;1999.90;999.90;;;22.30;80.60;;;;;;5068562;28;20036;-76
2022/08/28 12:32:12;;;;;;;1999.90;999.90;;;22.40;81.50;;;;;;5072738;28;20139;-75